Time;durP1;ratioP1;P1;durP2;ratioP2;P2;SDS_P1;SDS_P2;PMS_P1;PMS_P2;Temp;Humidity;BMP_temperature;BMP_pressure;BME280_temperature;BME280_humidity;BME280_pressure;Samples;Min_cycle;Max_cycle;Signal;HPM_P1;HPM_P2
2022/12/02 00:01:35;;;;;;;12.05;6.60;;;;;;;5.86;100.00;97323.13;4949093;28;20106;-55
2022/12/02 00:04:16;;;;;;;9.93;7.07;;;;;;;5.63;100.00;97292.34;4949399;28;20106;-60
2022/12/02 00:06:43;;;;;;;14.07;7.78;;;;;;;5.87;100.00;97324.72;4949220;28;20129;-55
2022/12/02 00:09:20;;;;;;;10.73;6.95;;;;;;;5.89;100.00;97322.44;4948917;28;20059;-55
2022/12/02 00:11:47;;;;;;;11.45;5.93;;;;;;;5.84;100.00;97325.38;4949399;28;20142;-57
2022/12/02 00:14:29;;;;;;;9.88;5.65;;;;;;;5.95;100.00;97321.09;4947795;29;20143;-55
2022/12/02 00:16:56;;;;;;;8.95;5.43;;;;;;;5.94;100.00;97325.00;4949162;28;20114;-57
2022/12/02 00:19:23;;;;;;;10.90;5.35;;;;;;;5.84;100.00;97331.69;4949274;28;20082;-61
2022/12/02 00:21:50;;;;;;;8.55;5.40;;;;;;;5.87;100.00;97325.53;4949327;28;20055;-60
2022/12/02 00:24:18;;;;;;;9.98;6.80;;;;;;;5.40;100.00;97260.81;4949023;28;20055;-56
2022/12/02 00:26:45;;;;;;;10.68;6.45;;;;;;;5.87;100.00;97330.22;4947603;29;20051;-55
2022/12/02 00:29:11;;;;;;;13.30;7.05;;;;;;;5.80;100.00;97313.44;4948705;28;20411;-62
2022/12/02 00:31:38;;;;;;;10.30;5.63;;;;;;;5.98;100.00;97331.44;4948604;28;20618;-62
2022/12/02 00:34:05;;;;;;;9.13;5.88;;;;;;;5.97;100.00;97335.34;4948800;28;20163;-55
2022/12/02 00:36:32;;;;;;;12.20;6.03;;;;;;;5.63;100.00;97277.78;4948874;28;20504;-60
2022/12/02 00:38:58;;;;;;;12.95;6.70;;;;;;;6.06;100.00;97327.81;4948356;28;20621;-55
2022/12/02 00:41:25;;;;;;;14.65;8.38;;;;;;;6.02;100.00;97335.16;4948346;28;20550;-60
2022/12/02 00:46:37;;;;;;;10.32;5.65;;;;;;;5.72;100.00;97328.03;4948398;28;20106;-61
2022/12/02 00:49:08;;;;;;;10.95;5.95;;;;;;;5.15;100.00;97264.50;4948964;28;20498;-61
2022/12/02 00:51:36;;;;;;;9.32;5.32;;;;;;;5.47;100.00;97315.22;4948690;28;20570;-60
2022/12/02 00:54:03;;;;;;;8.85;5.53;;;;;;;5.29;100.00;97335.66;4948182;28;20138;-56
2022/12/02 00:56:31;;;;;;;11.90;6.88;;;;;;;5.22;100.00;97340.84;4948504;28;20115;-61
2022/12/02 00:58:58;;;;;;;13.73;6.40;;;;;;;5.21;100.00;97334.56;4948534;28;20118;-61
2022/12/02 01:01:25;;;;;;;12.65;6.90;;;;;;;5.26;100.00;97325.31;4948113;28;20055;-58
2022/12/02 01:03:52;;;;;;;14.55;6.80;;;;;;;4.76;100.00;97288.69;4948549;28;20113;-57
2022/12/02 01:06:18;;;;;;;10.88;6.05;;;;;;;4.43;100.00;97270.03;4948121;28;20700;-61
2022/12/02 01:08:45;;;;;;;13.27;6.47;;;;;;;4.43;100.00;97291.97;4947966;28;20138;-60
2022/12/02 01:11:12;;;;;;;9.07;4.95;;;;;;;4.11;100.00;97239.59;4947733;29;20138;-58
2022/12/02 01:13:39;;;;;;;14.00;6.00;;;;;;;2.80;100.00;97119.66;4948086;28;20917;-60
2022/12/02 01:16:05;;;;;;;15.57;7.30;;;;;;;4.61;100.00;97326.50;4934220;28;20060;-55
2022/12/02 01:18:32;;;;;;;13.48;5.93;;;;;;;4.66;100.00;97329.03;4960168;28;20058;-57
2022/12/02 01:20:59;;;;;;;21.38;7.38;;;;;;;4.76;100.00;97329.84;4947884;28;20051;-60
2022/12/02 01:23:26;;;;;;;11.85;5.68;;;;;;;4.78;100.00;97330.31;4947654;28;20055;-60
2022/12/02 01:25:52;;;;;;;11.48;5.13;;;;;;;4.53;100.00;97335.53;4929785;28;20462;-56
2022/12/02 01:28:19;;;;;;;9.57;5.20;;;;;;;4.12;100.00;97260.41;4955736;28;20415;-60
2022/12/02 01:30:46;;;;;;;11.48;5.55;;;;;;;4.46;100.00;97328.91;4947992;28;20055;-55
2022/12/02 01:33:13;;;;;;;10.45;5.50;;;;;;;4.56;100.00;97307.44;4947642;28;20063;-55
2022/12/02 01:35:40;;;;;;;11.25;5.82;;;;;;;4.85;100.00;97320.47;4927676;28;20590;-56
2022/12/02 01:38:06;;;;;;;13.85;6.05;;;;;;;5.04;100.00;97317.34;4957185;28;20126;-61
2022/12/02 01:40:33;;;;;;;10.07;5.32;;;;;;;4.78;100.00;97319.34;4946117;29;20055;-60
2022/12/02 01:43:00;;;;;;;10.50;5.60;;;;;;;4.31;100.00;97234.25;4947299;28;20487;-61
2022/12/02 01:45:26;;;;;;;13.48;5.63;;;;;;;4.86;100.00;97318.50;4925250;28;20123;-57
2022/12/02 01:47:53;;;;;;;10.10;5.57;;;;;;;4.98;100.00;97318.66;4945829;29;20090;-62
2022/12/02 01:50:20;;;;;;;16.05;6.43;;;;;;;4.91;100.00;97301.88;4945790;29;20110;-60
2022/12/02 01:52:47;;;;;;;12.13;5.32;;;;;;;4.79;100.00;97255.09;4947647;28;20755;-60
2022/12/02 01:55:21;;;;;;;10.57;5.47;;;;;;;5.38;100.00;97317.19;4922025;28;20094;-57
2022/12/02 01:57:48;;;;;;;6.43;4.20;;;;;;;5.46;100.00;97319.91;4960156;28;20052;-56
2022/12/02 02:00:15;;;;;;;10.57;4.55;;;;;;;5.55;100.00;97317.09;4947047;28;20145;-56
2022/12/02 02:02:44;;;;;;;11.07;5.95;;;;;;;5.17;100.00;97244.94;4947613;29;20118;-61
2022/12/02 02:05:15;;;;;;;7.25;4.32;;;;;;;5.09;100.00;97243.03;4947250;28;20107;-55
2022/12/02 02:07:44;;;;;;;9.73;4.63;;;;;;;5.61;100.00;97322.06;4947317;28;20059;-61
2022/12/02 02:10:11;;;;;;;6.22;3.92;;;;;;;5.74;100.00;97320.22;4946918;28;20142;-61
2022/12/02 02:12:39;;;;;;;7.00;4.25;;;;;;;5.33;100.00;97255.00;4945236;29;20475;-61
2022/12/02 02:15:09;;;;;;;10.60;4.30;;;;;;;5.45;100.00;97268.06;4946049;28;20090;-56
2022/12/02 02:17:35;;;;;;;8.50;4.90;;;;;;;5.76;100.00;97306.97;4945086;29;20058;-60
2022/12/02 02:20:05;;;;;;;6.53;4.30;;;;;;;5.39;100.00;97314.09;4946264;28;20582;-58
2022/12/02 02:22:44;;;;;;;8.10;4.40;;;;;;;4.81;100.00;97263.78;4945007;29;20051;-60
2022/12/02 02:25:14;;;;;;;7.05;4.15;;;;;;;5.05;100.00;97313.44;4927377;29;20060;-58
2022/12/02 02:27:51;;;;;;;8.90;4.78;;;;;;;4.87;100.00;97317.38;4927224;29;20051;-61
2022/12/02 02:30:19;;;;;;;11.45;5.07;;;;;;;4.50;100.00;97284.03;4926210;29;20118;-63
2022/12/02 02:32:47;;;;;;;6.85;4.03;;;;;;;4.68;100.00;97316.94;4927486;29;20063;-60
2022/12/02 02:35:14;;;;;;;11.15;5.15;;;;;;;4.58;100.00;97321.63;4927729;29;20052;-55
2022/12/02 02:37:42;;;;;;;8.57;4.45;;;;;;;4.60;100.00;97319.38;4927407;29;20146;-57
2022/12/02 02:40:10;;;;;;;7.10;4.47;;;;;;;4.26;100.00;97259.09;4927523;29;20475;-61
2022/12/02 02:42:37;;;;;;;9.82;5.00;;;;;;;4.57;100.00;97331.00;4926955;29;20139;-60
2022/12/02 02:45:04;;;;;;;8.85;4.68;;;;;;;4.68;100.00;97326.78;4927664;29;20208;-57
2022/12/02 02:47:31;;;;;;;10.38;4.65;;;;;;;4.80;100.00;97323.38;4927096;29;20094;-60
2022/12/02 02:49:58;;;;;;;8.73;4.97;;;;;;;4.89;100.00;97304.13;4927519;29;20075;-60
2022/12/02 02:52:24;;;;;;;8.60;5.07;;;;;;;4.90;100.00;97300.28;4245504;28;5001967;-55
2022/12/02 02:54:51;;;;;;;9.77;4.95;;;;;;;5.11;100.00;97323.91;4927323;29;20067;-55
2022/12/02 02:57:18;;;;;;;7.50;4.40;;;;;;;4.81;100.00;97319.50;4927183;29;20146;-60
2022/12/02 02:59:48;;;;;;;9.93;4.55;;;;;;;4.71;100.00;97325.31;4927396;29;20616;-55
2022/12/02 03:02:15;;;;;;;8.40;4.68;;;;;;;4.66;100.00;97320.81;4941437;29;20506;-55
2022/12/02 03:04:42;;;;;;;9.35;5.10;;;;;;;4.95;100.00;97344.00;4927198;29;20056;-61
2022/12/02 03:07:09;;;;;;;9.57;5.43;;;;;;;4.90;100.00;97324.97;4926677;29;20490;-55
2022/12/02 03:09:37;;;;;;;13.43;5.85;;;;;;;4.85;100.00;97320.47;4927317;29;20498;-55
2022/12/02 03:12:04;;;;;;;10.77;5.68;;;;;;;5.00;100.00;97321.84;4927184;29;20056;-61
2022/12/02 03:14:30;;;;;;;9.50;5.40;;;;;;;5.16;100.00;97320.19;4927051;29;20439;-60
2022/12/02 03:17:01;;;;;;;11.15;5.82;;;;;;;5.34;100.00;97327.25;4926569;29;20146;-61
2022/12/02 03:19:31;;;;;;;10.77;5.57;;;;;;;4.87;100.00;97257.03;4927096;29;20058;-60
2022/12/02 03:22:00;;;;;;;9.80;5.70;;;;;;;5.17;100.00;97310.84;4926748;29;20139;-57
2022/12/02 03:24:27;;;;;;;10.10;5.85;;;;;;;5.15;100.00;97274.66;4940651;29;20502;-55
2022/12/02 03:26:54;;;;;;;7.50;5.00;;;;;;;5.27;100.00;97280.25;4946219;28;20146;-61
2022/12/02 03:29:20;;;;;;;10.68;4.88;;;;;;;5.61;100.00;97324.03;4946207;28;20461;-55
2022/12/02 03:31:47;;;;;;;9.30;4.80;;;;;;;5.35;100.00;97307.69;4947553;28;20589;-55
2022/12/02 03:34:14;;;;;;;8.55;5.10;;;;;;;5.36;100.00;97308.50;4964383;28;20114;-63
2022/12/02 03:36:41;;;;;;;7.55;4.70;;;;;;;5.52;100.00;97323.25;4949686;28;20135;-60
2022/12/02 03:39:09;;;;;;;11.40;5.68;;;;;;;5.51;100.00;97296.94;4949803;28;20147;-60
2022/12/02 03:41:36;;;;;;;6.88;4.28;;;;;;;5.75;100.00;97322.63;4949699;28;20506;-55
2022/12/02 03:44:03;;;;;;;8.02;4.40;;;;;;;5.80;100.00;97321.66;4949785;28;20170;-55
2022/12/02 03:46:30;;;;;;;8.05;4.60;;;;;;;5.10;100.00;97214.44;4949871;28;20047;-55
2022/12/02 03:48:58;;;;;;;6.00;4.20;;;;;;;5.71;100.00;97298.91;4949854;29;20051;-60
2022/12/02 03:51:25;;;;;;;5.63;4.05;;;;;;;5.86;100.00;97320.38;4948418;29;20146;-60
2022/12/02 03:53:52;;;;;;;6.35;3.67;;;;;;;5.60;100.00;97297.69;4949728;28;20063;-60
2022/12/02 03:56:19;;;;;;;6.65;3.92;;;;;;;5.69;100.00;97307.47;4949333;28;20099;-60
2022/12/02 03:58:49;;;;;;;7.22;4.32;;;;;;;5.81;100.00;97328.78;4949197;28;20170;-60
2022/12/02 04:01:16;;;;;;;7.45;4.57;;;;;;;5.41;100.00;97261.59;4949626;28;20142;-56
2022/12/02 04:03:43;;;;;;;7.65;4.97;;;;;;;5.79;100.00;97328.28;4949388;28;20055;-61
2022/12/02 04:06:11;;;;;;;8.32;4.20;;;;;;;5.52;100.00;97284.78;4963673;28;20574;-60
2022/12/02 04:08:38;;;;;;;8.10;4.60;;;;;;;5.95;100.00;97337.59;4949341;28;20130;-55
2022/12/02 04:11:05;;;;;;;5.65;3.88;;;;;;;5.91;100.00;97336.66;4949105;28;20055;-58
2022/12/02 04:13:31;;;;;;;6.38;4.32;;;;;;;5.93;100.00;97339.88;4949290;28;20059;-59
2022/12/02 04:15:58;;;;;;;7.20;4.50;;;;;;;5.55;100.00;97289.63;4949250;28;20043;-60
2022/12/02 04:18:25;;;;;;;8.88;5.00;;;;;;;5.86;100.00;97334.09;4949211;28;20051;-55
2022/12/02 04:20:52;;;;;;;7.43;4.95;;;;;;;5.89;100.00;97333.44;4964162;28;20349;-60
2022/12/02 04:23:18;;;;;;;7.20;4.50;;;;;;;6.00;100.00;97351.16;4948747;28;20142;-61
2022/12/02 04:25:45;;;;;;;5.72;4.40;;;;;;;5.71;100.00;97298.91;4949274;28;20130;-63
2022/12/02 04:28:11;;;;;;;5.95;4.18;;;;;;;6.07;100.00;97351.41;4963370;28;20058;-61
2022/12/02 04:30:38;;;;;;;7.90;4.55;;;;;;;5.93;100.00;97370.09;4948711;28;20099;-61
2022/12/02 04:33:05;;;;;;;6.20;4.38;;;;;;;6.02;100.00;97359.88;4948929;28;20499;-56
2022/12/02 04:35:31;;;;;;;7.30;4.93;;;;;;;6.06;100.00;97356.13;4947304;28;20518;-58
2022/12/02 04:37:58;;;;;;;6.78;4.72;;;;;;;6.06;100.00;97352.56;4948344;28;20059;-56
2022/12/02 04:40:24;;;;;;;11.63;5.65;;;;;;;6.07;100.00;97357.72;4947724;28;20142;-62
2022/12/02 04:42:51;;;;;;;11.50;6.85;;;;;;;5.77;100.00;97309.38;4947965;28;20100;-56
2022/12/02 04:45:17;;;;;;;15.13;9.50;;;;;;;6.12;100.00;97359.47;4948734;28;20055;-57
2022/12/02 04:47:44;;;;;;;16.80;11.13;;;;;;;6.16;100.00;97360.44;4948756;28;20130;-55
2022/12/02 04:50:11;;;;;;;8.10;4.97;;;;;;;6.01;100.00;97336.25;4948499;28;20098;-61
2022/12/02 04:52:38;;;;;;;6.18;4.25;;;;;;;6.18;100.00;97374.63;4948340;28;20122;-59
2022/12/02 04:55:05;;;;;;;5.45;3.55;;;;;;;6.11;100.00;97379.88;4947118;29;20065;-55
2022/12/02 04:57:31;;;;;;;5.63;3.70;;;;;;;5.65;100.00;97305.75;4948105;28;20051;-56
2022/12/02 04:59:58;;;;;;;7.32;4.05;;;;;;;6.13;100.00;97383.09;4948276;29;20495;-60
2022/12/02 05:02:25;;;;;;;9.88;4.90;;;;;;;6.00;100.00;97364.91;4947906;28;20354;-60
2022/12/02 05:04:52;;;;;;;6.65;4.13;;;;;;;6.08;100.00;97391.53;4948560;28;20059;-61
2022/12/02 05:07:19;;;;;;;7.50;4.80;;;;;;;5.93;100.00;97368.19;4947836;28;20110;-56
2022/12/02 05:09:45;;;;;;;5.90;4.15;;;;;;;6.19;100.00;97387.28;4948400;28;20044;-60
2022/12/02 05:12:12;;;;;;;7.93;4.82;;;;;;;6.06;100.00;97391.06;4948360;28;20110;-61
2022/12/02 05:14:39;;;;;;;6.78;4.72;;;;;;;5.69;100.00;97389.16;4948357;28;20059;-61
2022/12/02 05:17:05;;;;;;;8.85;5.25;;;;;;;5.41;100.00;97322.03;4947835;29;20052;-55
2022/12/02 05:19:32;;;;;;;7.78;5.65;;;;;;;5.92;100.00;97409.75;4948294;28;20051;-61
2022/12/02 05:21:59;;;;;;;9.98;5.57;;;;;;;6.00;100.00;97401.47;4947803;28;20518;-61
2022/12/02 05:24:25;;;;;;;7.50;5.50;;;;;;;5.63;100.00;97351.97;4955673;28;20059;-57
2022/12/02 05:26:52;;;;;;;9.15;5.20;;;;;;;5.45;100.00;97301.00;4947715;28;20059;-56
2022/12/02 05:29:18;;;;;;;11.40;5.75;;;;;;;5.94;100.00;97402.78;4946711;29;20535;-58
2022/12/02 05:31:45;;;;;;;10.98;5.97;;;;;;;6.10;100.00;97472.56;4946082;29;20500;-56
2022/12/02 05:34:12;;;;;;;10.45;5.72;;;;;;;6.14;100.00;97409.47;4947849;28;20090;-58
2022/12/02 05:36:38;;;;;;;11.95;6.10;;;;;;;6.28;100.00;97410.00;4947819;28;20213;-56
2022/12/02 05:39:05;;;;;;;11.48;6.55;;;;;;;4.88;100.00;97179.03;4946552;29;20146;-57
2022/12/02 05:41:32;;;;;;;15.57;7.45;;;;;;;6.01;100.00;97380.25;4947449;28;20063;-56
2022/12/02 05:44:17;;;;;;;16.67;7.07;;;;;;;5.97;100.00;97406.81;4947653;28;20162;-56
2022/12/02 05:46:44;;;;;;;13.43;6.82;;;;;;;5.62;100.00;97410.81;4947422;28;20086;-60
2022/12/02 05:49:22;;;;;;;15.25;7.93;;;;;;;5.79;100.00;97416.25;4977312;28;20066;-55
2022/12/02 05:51:57;;;;;;;15.57;8.00;;;;;;;5.83;100.00;97417.25;4947052;28;20059;-56
2022/12/02 05:54:25;;;;;;;23.27;8.80;;;;;;;5.69;100.00;97411.91;4946638;28;20484;-55
2022/12/02 05:56:52;;;;;;;15.07;7.18;;;;;;;5.31;100.00;97422.06;4947126;28;20150;-57
2022/12/02 05:59:20;;;;;;;25.50;8.38;;;;;;;5.19;100.00;97423.88;4947126;28;20492;-56
2022/12/02 06:01:56;;;;;;;15.70;6.70;;;;;;;5.00;100.00;97437.16;4947368;28;20170;-56
2022/12/02 06:04:25;;;;;;;17.15;8.15;;;;;;;5.18;100.00;97427.75;4947458;28;20080;-58
2022/12/02 06:06:54;;;;;;;15.50;7.90;;;;;;;5.22;100.00;97429.53;4947139;28;20059;-61
2022/12/02 06:09:27;;;;;;;12.93;5.72;;;;;;;4.91;100.00;97430.88;4947279;28;20458;-61
2022/12/02 06:11:54;;;;;;;25.40;8.13;;;;;;;4.42;100.00;97358.94;4947369;28;20114;-61
2022/12/02 06:14:24;;;;;;;25.65;11.15;;;;;;;5.03;100.00;97426.31;4947443;28;20059;-60
2022/12/02 06:16:54;;;;;;;13.95;6.43;;;;;;;4.84;100.00;97434.09;4947077;28;20138;-57
2022/12/02 06:19:25;;;;;;;11.93;5.75;;;;;;;4.98;100.00;97431.19;4947246;28;20094;-61
2022/12/02 06:21:53;;;;;;;12.52;6.18;;;;;;;4.73;100.00;97388.13;4947111;28;20496;-58
2022/12/02 06:24:31;;;;;;;13.45;6.45;;;;;;;5.02;100.00;97391.78;4946842;28;20117;-61
2022/12/02 06:27:00;;;;;;;13.38;6.75;;;;;;;5.17;100.00;97420.66;4946870;28;20055;-61
2022/12/02 06:29:29;;;;;;;11.07;6.20;;;;;;;5.39;100.00;97447.91;4945284;29;20055;-60
2022/12/02 06:31:58;;;;;;;11.32;6.10;;;;;;;5.40;100.00;97452.25;4945384;29;20058;-56
2022/12/02 06:34:36;;;;;;;13.40;6.57;;;;;;;5.61;100.00;97453.19;4946688;28;20058;-61
2022/12/02 06:37:16;;;;;;;22.70;14.00;;;;;;;5.45;100.00;97449.34;4943833;28;20059;-59
2022/12/02 06:39:46;;;;;;;19.10;7.28;;;;;;;5.18;100.00;97436.00;4954730;28;20482;-61
2022/12/02 06:42:37;;;;;;;13.93;6.05;;;;;;;5.25;100.00;97455.53;4961257;28;20815;-57
2022/12/02 06:45:13;;;;;;;10.95;5.63;;;;;;;5.12;100.00;97445.53;4979100;28;20058;-61
2022/12/02 06:47:59;;;;;;;16.13;6.93;;;;;;;5.01;100.00;97455.25;4964260;28;20059;-56
2022/12/02 06:50:26;;;;;;;12.30;6.63;;;;;;;5.19;100.00;97451.34;4963454;28;20495;-56
2022/12/02 06:53:01;;;;;;;12.10;6.30;;;;;;;4.93;100.00;97434.09;4964379;28;20138;-65
2022/12/02 06:55:36;;;;;;;12.50;6.57;;;;;;;5.24;100.00;97459.41;4962044;28;20573;-55
2022/12/02 06:58:21;;;;;;;12.32;6.50;;;;;;;5.13;100.00;97463.63;4964942;28;20133;-55
2022/12/02 07:00:48;;;;;;;16.45;7.68;;;;;;;5.53;100.00;97467.75;4963171;28;20046;-57
2022/12/02 07:03:29;;;;;;;15.60;7.65;;;;;;;5.70;100.00;97478.69;4946164;28;20566;-56
2022/12/02 07:06:22;;;;;;;14.60;6.40;;;;;;;5.44;100.00;97476.00;4945423;28;20058;-62
2022/12/02 07:08:49;;;;;;;16.58;7.55;;;;;;;5.20;100.00;97437.28;4946416;28;20169;-61
2022/12/02 07:14:40;;;;;;;14.73;6.57;;;;;;;5.18;100.00;97444.25;4964751;28;20055;-59
2022/12/02 07:17:20;;;;;;;12.57;6.25;;;;;;;5.49;100.00;97472.28;4964116;28;20063;-60
2022/12/02 07:19:53;;;;;;;10.48;5.80;;;;;;;5.37;100.00;97472.97;4971846;28;20549;-58
2022/12/02 07:22:29;;;;;;;14.23;5.70;;;;;;;5.34;100.00;97486.53;4963279;28;20086;-59
2022/12/02 07:25:30;;;;;;;10.80;5.30;;;;;;;5.42;100.00;97475.50;4965617;28;20058;-58
2022/12/02 07:27:57;;;;;;;11.55;5.45;;;;;;;5.36;100.00;97473.28;4963553;28;20465;-66
2022/12/02 07:30:31;;;;;;;8.95;5.15;;;;;;;5.38;100.00;97482.00;4964380;28;20046;-62
2022/12/02 07:32:58;;;;;;;12.13;5.53;;;;;;;5.47;100.00;97502.03;4963944;28;20066;-63
2022/12/02 07:35:26;;;;;;;10.35;4.97;;;;;;;5.02;100.00;97423.91;4967550;28;20457;-63
2022/12/02 07:37:52;;;;;;;9.93;4.63;;;;;;;5.05;100.00;97423.25;4976123;28;20078;-61
2022/12/02 07:40:20;;;;;;;10.40;4.55;;;;;;;5.32;100.00;97483.31;4962088;28;20055;-66
2022/12/02 07:42:46;;;;;;;10.68;5.85;;;;;;;5.76;100.00;97488.38;4964441;28;20580;-57
2022/12/02 07:45:16;;;;;;;9.77;5.43;;;;;;;5.66;100.00;97489.53;4963117;28;20065;-62
2022/12/02 07:47:43;;;;;;;11.15;5.82;;;;;;;5.27;100.00;97417.56;4977821;28;20047;-57
2022/12/02 07:50:12;;;;;;;12.95;5.57;;;;;;;5.63;100.00;97472.88;4961886;28;20078;-59
2022/12/02 07:52:38;;;;;;;10.15;5.40;;;;;;;5.70;100.00;97493.25;4963519;28;20485;-58
2022/12/02 07:55:05;;;;;;;12.32;6.13;;;;;;;5.71;100.00;97496.78;4964341;28;20444;-62
2022/12/02 07:57:33;;;;;;;10.55;5.55;;;;;;;5.94;100.00;97509.19;4994557;28;20051;-62
2022/12/02 08:00:03;;;;;;;9.60;5.30;;;;;;;5.90;100.00;97499.97;4962564;28;20217;-56
2022/12/02 08:02:30;;;;;;;13.02;6.13;;;;;;;6.00;100.00;97505.94;4978914;28;20055;-59
2022/12/02 08:04:57;;;;;;;22.63;13.20;;;;;;;5.72;100.00;97410.47;4963924;28;20660;-61
2022/12/02 08:07:23;;;;;;;29.40;20.63;;;;;;;6.66;100.00;97501.53;4961223;28;20506;-60
2022/12/02 08:09:50;;;;;;;22.23;14.70;;;;;;;6.93;100.00;97497.47;4954564;28;20482;-60
2022/12/02 08:12:17;;;;;;;19.77;14.25;;;;;;;5.01;100.00;97158.78;4985425;28;20539;-59
2022/12/02 08:14:43;;;;;;;30.13;19.52;;;;;;;7.30;100.00;97497.31;4977462;28;20134;-59
2022/12/02 08:17:10;;;;;;;16.10;8.65;;;;;;;6.21;100.00;97334.69;4960041;28;20133;-60
2022/12/02 08:19:36;;;;;;;13.93;7.22;;;;;;;7.70;100.00;97498.38;4965827;28;20126;-59
2022/12/02 08:22:03;;;;;;;9.75;6.00;;;;;;;7.88;100.00;97496.22;4960605;28;20053;-56
2022/12/02 08:24:30;;;;;;;16.58;10.25;;;;;;;7.43;100.00;97410.78;4967184;28;20489;-64
2022/12/02 08:26:56;;;;;;;10.63;6.95;;;;;;;8.13;100.00;97488.78;4952751;28;20055;-58
2022/12/02 08:29:23;;;;;;;11.98;7.07;;;;;;;7.89;100.00;97489.56;4967535;28;20054;-62
2022/12/02 08:31:50;;;;;;;9.55;5.80;;;;;;;8.05;100.00;97492.44;4967543;28;20161;-60
2022/12/02 08:34:16;;;;;;;10.05;6.55;;;;;;;8.05;100.00;97481.41;4966120;28;20121;-60
2022/12/02 08:36:43;;;;;;;6.13;4.38;;;;;;;7.73;100.00;97478.38;4956302;28;20510;-58
2022/12/02 08:39:10;;;;;;;8.93;5.30;;;;;;;7.34;100.00;97497.44;4965790;28;20050;-58
2022/12/02 08:41:37;;;;;;;10.02;5.85;;;;;;;6.98;100.00;97494.50;4956505;28;20059;-62
2022/12/02 08:44:04;;;;;;;8.35;5.13;;;;;;;6.81;100.00;97498.19;4967323;28;20157;-63
2022/12/02 08:46:32;;;;;;;9.82;5.50;;;;;;;6.54;100.00;97504.22;4965579;28;20051;-57
2022/12/02 08:48:59;;;;;;;11.02;6.10;;;;;;;6.79;100.00;97507.94;4967267;28;20139;-57
2022/12/02 08:51:26;;;;;;;11.73;6.07;;;;;;;6.57;100.00;97420.16;4965307;28;20058;-57
2022/12/02 08:53:52;;;;;;;8.85;5.47;;;;;;;6.90;100.00;97449.38;4963074;28;20136;-58
2022/12/02 08:56:19;;;;;;;12.60;4.88;;;;;;;6.96;100.00;97450.78;4979739;28;20151;-61
2022/12/02 08:58:46;;;;;;;21.98;8.88;;;;;;;7.37;100.00;97503.09;4961812;28;20051;-56
2022/12/02 09:01:12;;;;;;;15.40;9.65;;;;;;;7.16;100.00;97463.72;4982068;28;20549;-56
2022/12/02 09:03:39;;;;;;;12.02;5.32;;;;;;;7.39;100.00;97498.03;4966212;28;20134;-59
2022/12/02 09:06:06;;;;;;;12.73;5.97;;;;;;;7.39;100.00;97500.81;4966636;28;20696;-59
2022/12/02 09:08:33;;;;;;;11.60;5.40;;;;;;;7.51;100.00;97511.88;4966846;28;20082;-57
2022/12/02 09:10:59;;;;;;;8.10;4.90;;;;;;;7.59;100.00;97502.69;4966608;28;20133;-59
2022/12/02 09:13:26;;;;;;;10.18;5.40;;;;;;;7.70;100.00;97492.84;4965236;28;20142;-60
2022/12/02 09:15:53;;;;;;;11.88;5.50;;;;;;;7.47;100.00;97502.66;4966228;28;20481;-57
2022/12/02 09:18:20;;;;;;;12.30;5.90;;;;;;;6.79;100.00;97439.91;4966269;28;20586;-60
2022/12/02 09:20:47;;;;;;;11.13;5.80;;;;;;;7.29;100.00;97459.88;4966196;28;20181;-57
2022/12/02 09:23:13;;;;;;;11.50;5.38;;;;;;;7.58;100.00;97492.03;4966302;28;20090;-60
2022/12/02 09:25:40;;;;;;;10.70;5.57;;;;;;;7.76;100.00;97496.22;4966390;28;20058;-59
2022/12/02 09:28:07;;;;;;;9.07;5.57;;;;;;;6.57;100.00;97365.94;4966198;28;20054;-60
2022/12/02 09:30:33;;;;;;;10.18;5.88;;;;;;;7.60;100.00;97486.97;4966108;28;20125;-57
2022/12/02 09:33:00;;;;;;;11.27;5.35;;;;;;;7.35;100.00;97468.75;4952439;28;20141;-59
2022/12/02 09:35:27;;;;;;;10.30;5.95;;;;;;;7.38;100.00;97507.44;4945081;28;20600;-58
2022/12/02 09:37:53;;;;;;;13.52;6.00;;;;;;;7.36;100.00;97501.47;4946492;29;20058;-58
2022/12/02 09:40:21;;;;;;;10.13;6.20;;;;;;;7.49;100.00;97505.88;4946923;28;20059;-58
2022/12/02 09:42:49;;;;;;;13.63;5.63;;;;;;;7.32;100.00;97453.69;4947191;28;20102;-57
2022/12/02 09:45:16;;;;;;;10.48;5.88;;;;;;;7.45;100.00;97485.66;4946919;29;20589;-57
2022/12/02 09:47:43;;;;;;;13.15;6.65;;;;;;;7.55;100.00;97490.75;4945588;29;20573;-57
2022/12/02 09:50:16;;;;;;;9.95;5.72;;;;;;;7.17;100.00;97413.00;4947382;28;20055;-57
2022/12/02 09:52:44;;;;;;;12.95;7.03;;;;;;;7.25;100.00;97453.44;4946341;28;20065;-57
2022/12/02 09:55:15;;;;;;;11.90;5.10;;;;;;;6.93;100.00;97486.44;4945061;29;20063;-57
2022/12/02 09:57:42;;;;;;;13.07;5.82;;;;;;;6.99;100.00;97485.91;4946371;29;20134;-57
2022/12/02 10:00:14;;;;;;;21.95;11.48;;;;;;;7.39;100.00;97464.97;4946589;28;20138;-56
2022/12/02 10:02:44;;;;;;;9.80;5.63;;;;;;;7.10;100.00;97484.34;4946297;28;20051;-57
2022/12/02 10:05:29;;;;;;;12.93;6.70;;;;;;;6.60;100.00;97380.97;4961176;28;20047;-56
2022/12/02 10:07:58;;;;;;;14.07;8.50;;;;;;;7.49;100.00;97492.09;4946478;29;20059;-56
2022/12/02 10:10:32;;;;;;;10.80;5.80;;;;;;;6.93;100.00;97462.47;4946173;29;20063;-57
2022/12/02 10:13:00;;;;;;;17.73;10.07;;;;;;;7.15;100.00;97481.41;4946107;28;20063;-57
2022/12/02 10:15:33;;;;;;;19.88;9.48;;;;;;;6.83;100.00;97495.91;4945861;28;20514;-58
2022/12/02 10:18:08;;;;;;;14.73;8.50;;;;;;;6.68;100.00;97433.22;4960770;28;20125;-57
2022/12/02 10:20:34;;;;;;;19.25;10.40;;;;;;;6.65;100.00;97438.56;4944546;29;20530;-59
2022/12/02 10:23:14;;;;;;;17.10;7.88;;;;;;;7.11;100.00;97472.19;4945878;28;20051;-56
2022/12/02 10:26:12;;;;;;;12.95;7.75;;;;;;;7.39;100.00;97476.00;4990477;28;20047;-56
2022/12/02 10:28:41;;;;;;;14.30;7.75;;;;;;;7.07;100.00;97457.50;4967011;28;20089;-59
2022/12/02 10:31:13;;;;;;;21.73;12.43;;;;;;;7.73;100.00;97481.13;4964356;28;20109;-57
2022/12/02 10:33:49;;;;;;;16.10;8.95;;;;;;;7.76;100.00;97437.50;4965746;28;20072;-57
2022/12/02 10:36:35;;;;;;;13.50;7.75;;;;;;;8.09;100.00;97472.13;4964980;28;20097;-59
2022/12/02 10:39:26;;;;;;;10.25;6.28;;;;;;;8.40;100.00;97471.56;4965174;28;20054;-58
2022/12/02 10:42:02;;;;;;;11.10;7.13;;;;;;;8.27;100.00;97475.47;4964627;28;20518;-57
2022/12/02 10:44:33;;;;;;;13.32;6.80;;;;;;;8.64;100.00;97474.31;4964115;28;20055;-57
2022/12/02 10:47:21;;;;;;;7.57;4.95;;;;;;;8.02;100.00;97482.09;4964144;28;20514;-57
2022/12/02 10:49:57;;;;;;;9.93;5.97;;;;;;;7.87;100.00;97469.00;4963831;28;20121;-57
2022/12/02 10:52:33;;;;;;;16.55;10.30;;;;;;;8.24;100.00;97467.91;4964394;28;20141;-58
2022/12/02 10:55:01;;;;;;;11.50;6.88;;;;;;;8.83;100.00;97466.25;4965168;28;20050;-58
2022/12/02 10:57:30;;;;;;;11.38;7.18;;;;;;;9.01;100.00;97473.09;4965074;28;20054;-57
2022/12/02 11:00:00;;;;;;;7.55;5.35;;;;;;;8.97;100.00;97470.25;4964816;28;20079;-58
2022/12/02 11:02:37;;;;;;;11.45;7.05;;;;;;;8.21;100.00;97465.78;4978041;28;20046;-65
2022/12/02 11:05:17;;;;;;;7.90;5.13;;;;;;;8.20;100.00;97461.44;4964839;28;20055;-62
2022/12/02 11:07:58;;;;;;;11.88;6.97;;;;;;;8.26;100.00;97465.59;4963076;28;20046;-56
2022/12/02 11:10:37;;;;;;;10.57;6.43;;;;;;;8.41;100.00;97467.69;4964216;28;20054;-66
2022/12/02 11:13:12;;;;;;;6.63;4.57;;;;;;;7.87;100.00;97474.50;4963689;28;20105;-62
2022/12/02 11:15:51;;;;;;;8.52;5.32;;;;;;;7.72;100.00;97468.50;4978924;28;20062;-64
2022/12/02 11:18:26;;;;;;;11.40;7.18;;;;;;;7.62;100.00;97473.63;4963255;28;20061;-56
2022/12/02 11:21:14;;;;;;;6.82;4.35;;;;;;;7.74;100.00;97482.75;4964384;28;20066;-60
2022/12/02 11:23:40;;;;;;;8.85;5.38;;;;;;;7.59;100.00;97447.56;4961576;28;20059;-62
2022/12/02 11:26:11;;;;;;;6.93;4.55;;;;;;;6.97;100.00;97372.53;4988398;28;20145;-58
2022/12/02 11:28:47;;;;;;;7.97;5.00;;;;;;;7.10;100.00;97385.19;4964693;28;20105;-59
2022/12/02 11:31:17;;;;;;;8.48;5.75;;;;;;;7.58;100.00;97467.22;4963891;28;20063;-64
2022/12/02 11:33:47;;;;;;;11.35;6.63;;;;;;;7.58;100.00;97479.06;4951146;28;20592;-54
2022/12/02 11:36:22;;;;;;;12.65;6.90;;;;;;;7.47;100.00;97483.38;4962434;28;20394;-59
2022/12/02 11:38:49;;;;;;;13.23;7.28;;;;;;;7.47;100.00;97475.09;4964034;28;20291;-63
2022/12/02 11:41:27;;;;;;;11.18;7.22;;;;;;;7.27;100.00;97434.59;4963679;28;20058;-64
2022/12/02 11:44:07;;;;;;;9.48;6.18;;;;;;;7.81;100.00;97475.88;4964308;28;20059;-61